Time;durP1;ratioP1;P1;durP2;ratioP2;P2;SDS_P1;SDS_P2;PMS_P1;PMS_P2;Temp;Humidity;BMP_temperature;BMP_pressure;BME280_temperature;BME280_humidity;BME280_pressure;Samples;Min_cycle;Max_cycle;Signal;HPM_P1;HPM_P2
2022/02/16 00:00:37;;;;;;;;;;;;;;;;;;2141146;27;20335;-50
2022/02/16 00:01:38;;;;;;;;;;;;;;;;;;2135845;27;20316;-44
2022/02/16 00:02:39;;;;;;;;;;;;;;;;;;2138789;27;19922;-43
2022/02/16 00:03:39;;;;;;;;;;;;;;;;;;2140797;27;19922;-44
2022/02/16 00:04:40;;;;;;;;;;;;;;;;;;2138671;27;19937;-44
2022/02/16 00:05:41;;;;;;;;;;;;;;;;;;2140625;27;19979;-44
2022/02/16 00:06:42;;;;;;;;;;;;;;;;;;2141017;27;20438;-45
2022/02/16 00:07:43;;;;;;;;;;;;;;;;;;2137865;27;20290;-44
2022/02/16 00:08:44;;;;;;;;;;;;;;;;;;2140998;27;19927;-44
2022/02/16 00:09:45;;;;;;;;;;;;;;;;;;2140972;27;20367;-48
2022/02/16 00:10:46;;;;;;;;;;;;;;;;;;2133589;27;19962;-52
2022/02/16 00:11:47;;;;;;;;;;;;;;;;;;2132545;27;19948;-50
2022/02/16 00:12:48;;;;;;;;;;;;;;;;;;2134386;27;20022;-50
2022/02/16 00:13:49;;;;;;;;;;;;;;;;;;2138287;27;19966;-50
2022/02/16 00:14:50;;;;;;;;;;;;;;;;;;2141025;27;20017;-51
2022/02/16 00:15:50;;;;;;;;;;;;;;;;;;2138946;27;20354;-51
2022/02/16 00:16:51;;;;;;;;;;;;;;;;;;2132827;27;19962;-50
2022/02/16 00:17:53;;;;;;;;;;;;;;;;;;2132729;27;19965;-45
2022/02/16 00:18:53;;;;;;;;;;;;;;;;;;2135375;27;20280;-44
2022/02/16 00:19:54;;;;;;;;;;;;;;;;;;2140808;27;19927;-44
2022/02/16 00:20:55;;;;;;;;;;;;;;;;;;2141162;27;20315;-51
2022/02/16 00:21:56;;;;;;;;;;;;;;;;;;2138788;27;19923;-50
2022/02/16 00:22:57;;;;;;;;;;;;;;;;;;2141039;27;20010;-50
2022/02/16 00:23:58;;;;;;;;;;;;;;;;;;2140930;27;20291;-50
2022/02/16 00:24:58;;;;;;;;;;;;;;;;;;2137505;27;19975;-51
2022/02/16 00:26:02;;;;;;;;;;;;;;;;;;2140899;27;19927;-50
2022/02/16 00:27:02;;;;;;;;;;;;;;;;;;2139843;27;20061;-50
2022/02/16 00:28:03;;;;;;;;;;;;;;;;;;2133145;27;19930;-50
2022/02/16 00:29:04;;;;;;;;;;;;;;;;;;2132360;27;19927;-50
2022/02/16 00:30:05;;;;;;;;;;;;;;;;;;2132873;27;20286;-50
2022/02/16 00:31:07;;;;;;;;;;;;;;;;;;2131890;27;20268;-52
2022/02/16 00:32:09;;;;;;;;;;;;;;;;;;2132159;27;19996;-50
2022/02/16 00:33:10;;;;;;;;;;;;;;;;;;2135732;27;20013;-50
2022/02/16 00:34:11;;;;;;;;;;;;;;;;;;2141012;27;20018;-50
2022/02/16 00:35:12;;;;;;;;;;;;;;;;;;2141175;27;20375;-51
2022/02/16 00:36:13;;;;;;;;;;;;;;;;;;2135108;27;20447;-50
2022/02/16 00:37:15;;;;;;;;;;;;;;;;;;2132266;27;20014;-50
2022/02/16 00:38:16;;;;;;;;;;;;;;;;;;2134323;27;20364;-51
2022/02/16 00:39:17;;;;;;;;;;;;;;;;;;2137684;27;20153;-50
2022/02/16 00:40:18;;;;;;;;;;;;;;;;;;2140730;27;19983;-50
2022/02/16 00:41:18;;;;;;;;;;;;;;;;;;2136614;27;20013;-50
2022/02/16 00:42:19;;;;;;;;;;;;;;;;;;2133044;27;19923;-50
2022/02/16 00:43:20;;;;;;;;;;;;;;;;;;2132304;27;20272;-50
2022/02/16 00:44:21;;;;;;;;;;;;;;;;;;2135191;27;20364;-46
2022/02/16 00:45:22;;;;;;;;;;;;;;;;;;2140422;27;19926;-44
2022/02/16 00:46:23;;;;;;;;;;;;;;;;;;2140984;27;20284;-51
2022/02/16 00:47:24;;;;;;;;;;;;;;;;;;2137645;27;20009;-50
2022/02/16 00:48:25;;;;;;;;;;;;;;;;;;2140805;27;19982;-50
2022/02/16 00:49:26;;;;;;;;;;;;;;;;;;2140771;27;19923;-51
2022/02/16 00:50:27;;;;;;;;;;;;;;;;;;2134663;27;19923;-44
2022/02/16 00:51:28;;;;;;;;;;;;;;;;;;2131962;27;19924;-44
2022/02/16 00:52:29;;;;;;;;;;;;;;;;;;2134243;27;19927;-44
2022/02/16 00:53:29;;;;;;;;;;;;;;;;;;2137820;27;19934;-44
2022/02/16 00:54:30;;;;;;;;;;;;;;;;;;2140698;27;20025;-44
2022/02/16 00:55:31;;;;;;;;;;;;;;;;;;2137173;27;19927;-44
2022/02/16 00:56:40;;;;;;;;;;;;;;;;;;2131876;27;19945;-44
2022/02/16 00:57:40;;;;;;;;;;;;;;;;;;2132146;27;20009;-44
2022/02/16 00:58:41;;;;;;;;;;;;;;;;;;2135771;27;19930;-44
2022/02/16 00:59:42;;;;;;;;;;;;;;;;;;2140651;27;20395;-44
2022/02/16 01:00:43;;;;;;;;;;;;;;;;;;2140176;27;19975;-44
2022/02/16 01:01:44;;;;;;;;;;;;;;;;;;2135738;27;20419;-44
2022/02/16 01:02:45;;;;;;;;;;;;;;;;;;2140572;27;19927;-44
2022/02/16 01:03:46;;;;;;;;;;;;;;;;;;2138893;27;19922;-44
2022/02/16 01:04:46;;;;;;;;;;;;;;;;;;2137229;27;19923;-44
2022/02/16 01:05:48;;;;;;;;;;;;;;;;;;2140544;27;19922;-44
2022/02/16 01:06:49;;;;;;;;;;;;;;;;;;2139049;27;20026;-52
2022/02/16 01:07:50;;;;;;;;;;;;;;;;;;2138300;27;19923;-50
2022/02/16 01:08:51;;;;;;;;;;;;;;;;;;2140596;27;19923;-51
2022/02/16 01:09:51;;;;;;;;;;;;;;;;;;2136598;27;20280;-50
2022/02/16 01:10:53;;;;;;;;;;;;;;;;;;2140074;27;20243;-49
2022/02/16 01:11:54;;;;;;;;;;;;;;;;;;2140717;27;19965;-49
2022/02/16 01:12:55;;;;;;;;;;;;;;;;;;2137502;27;19927;-50
2022/02/16 01:13:55;;;;;;;;;;;;;;;;;;2141031;27;19955;-50
2022/02/16 01:14:56;;;;;;;;;;;;;;;;;;2139394;27;19923;-49
2022/02/16 01:15:57;;;;;;;;;;;;;;;;;;2133151;27;19950;-50
2022/02/16 01:16:58;;;;;;;;;;;;;;;;;;2132507;27;20031;-50
2022/02/16 01:17:59;;;;;;;;;;;;;;;;;;2140253;27;20287;-50
2022/02/16 01:19:00;;;;;;;;;;;;;;;;;;2137850;27;20005;-50
2022/02/16 01:20:01;;;;;;;;;;;;;;;;;;2140547;27;19927;-49
2022/02/16 01:21:02;;;;;;;;;;;;;;;;;;2137174;27;19922;-49
2022/02/16 01:22:03;;;;;;;;;;;;;;;;;;2139203;27;19923;-50
2022/02/16 01:23:04;;;;;;;;;;;;;;;;;;2140662;27;20259;-49
2022/02/16 01:24:04;;;;;;;;;;;;;;;;;;2135802;27;19931;-53
2022/02/16 01:25:06;;;;;;;;;;;;;;;;;;2131855;27;19923;-50
2022/02/16 01:26:06;;;;;;;;;;;;;;;;;;2131880;27;19954;-50
2022/02/16 01:27:07;;;;;;;;;;;;;;;;;;2136658;27;19930;-50
2022/02/16 01:28:08;;;;;;;;;;;;;;;;;;2140444;27;19966;-50
2022/02/16 01:29:09;;;;;;;;;;;;;;;;;;2140697;27;19971;-52
2022/02/16 01:30:10;;;;;;;;;;;;;;;;;;2138016;27;19972;-51
2022/02/16 01:31:11;;;;;;;;;;;;;;;;;;2140497;27;19923;-44
2022/02/16 01:32:12;;;;;;;;;;;;;;;;;;2139860;27;19923;-45
2022/02/16 01:33:16;;;;;;;;;;;;;;;;;;2138549;27;19922;-45
2022/02/16 01:34:17;;;;;;;;;;;;;;;;;;2140359;27;20312;-45
2022/02/16 01:35:17;;;;;;;;;;;;;;;;;;2138307;27;19975;-44
2022/02/16 01:36:18;;;;;;;;;;;;;;;;;;2139529;27;19924;-44
2022/02/16 01:37:19;;;;;;;;;;;;;;;;;;2136121;27;19927;-44
2022/02/16 01:38:20;;;;;;;;;;;;;;;;;;2134638;27;19923;-44
2022/02/16 01:39:21;;;;;;;;;;;;;;;;;;2131764;27;19962;-44
2022/02/16 01:40:22;;;;;;;;;;;;;;;;;;2131730;27;20368;-44
2022/02/16 01:41:22;;;;;;;;;;;;;;;;;;2135456;27;19939;-44
2022/02/16 01:42:23;;;;;;;;;;;;;;;;;;2140384;27;19947;-44
2022/02/16 01:43:24;;;;;;;;;;;;;;;;;;2139390;27;19926;-45
2022/02/16 01:44:25;;;;;;;;;;;;;;;;;;2136853;27;19922;-44
2022/02/16 01:45:26;;;;;;;;;;;;;;;;;;2140309;27;20303;-44
2022/02/16 01:46:27;;;;;;;;;;;;;;;;;;2138859;27;19923;-44
2022/02/16 01:47:28;;;;;;;;;;;;;;;;;;2132510;27;19979;-44
2022/02/16 01:48:29;;;;;;;;;;;;;;;;;;2131701;27;19927;-44
2022/02/16 01:49:30;;;;;;;;;;;;;;;;;;2132915;27;19926;-44
2022/02/16 01:50:30;;;;;;;;;;;;;;;;;;2139624;27;20428;-44
2022/02/16 01:51:31;;;;;;;;;;;;;;;;;;2140219;27;19980;-45
2022/02/16 01:52:32;;;;;;;;;;;;;;;;;;2137165;27;19930;-44
2022/02/16 01:53:33;;;;;;;;;;;;;;;;;;2140533;27;20021;-44
2022/02/16 01:54:34;;;;;;;;;;;;;;;;;;2140001;27;20017;-45
2022/02/16 01:55:35;;;;;;;;;;;;;;;;;;2133368;27;19932;-44
2022/02/16 01:56:35;;;;;;;;;;;;;;;;;;2131588;27;19934;-44
2022/02/16 01:57:37;;;;;;;;;;;;;;;;;;2132537;27;19957;-44
2022/02/16 01:58:38;;;;;;;;;;;;;;;;;;2137203;27;19923;-44
2022/02/16 01:59:39;;;;;;;;;;;;;;;;;;2140382;27;20256;-44
2022/02/16 02:00:40;;;;;;;;;;;;;;;;;;2138047;27;20105;-44
2022/02/16 02:01:41;;;;;;;;;;;;;;;;;;2132200;27;20341;-44
2022/02/16 02:02:42;;;;;;;;;;;;;;;;;;2131760;27;19931;-44
2022/02/16 02:03:43;;;;;;;;;;;;;;;;;;2132879;27;20018;-44
2022/02/16 02:04:44;;;;;;;;;;;;;;;;;;2140015;27;19983;-44
2022/02/16 02:05:45;;;;;;;;;;;;;;;;;;2140122;27;19934;-45
2022/02/16 02:06:46;;;;;;;;;;;;;;;;;;2136976;27;20014;-45
2022/02/16 02:07:47;;;;;;;;;;;;;;;;;;2140431;27;19930;-50
2022/02/16 02:08:48;;;;;;;;;;;;;;;;;;2140160;27;20025;-44
2022/02/16 02:09:48;;;;;;;;;;;;;;;;;;2137278;27;19930;-45
2022/02/16 02:10:49;;;;;;;;;;;;;;;;;;2140112;27;19923;-44
2022/02/16 02:11:50;;;;;;;;;;;;;;;;;;2139824;27;19975;-44
2022/02/16 02:12:52;;;;;;;;;;;;;;;;;;2132592;27;19923;-44
2022/02/16 02:13:52;;;;;;;;;;;;;;;;;;2137710;27;20394;-44
2022/02/16 02:14:53;;;;;;;;;;;;;;;;;;2138423;27;19931;-44
2022/02/16 02:15:54;;;;;;;;;;;;;;;;;;2138754;27;19930;-44
2022/02/16 02:16:55;;;;;;;;;;;;;;;;;;2140155;27;20017;-44
2022/02/16 02:17:56;;;;;;;;;;;;;;;;;;2136997;27;19923;-44
2022/02/16 02:18:57;;;;;;;;;;;;;;;;;;2131500;27;20291;-44
2022/02/16 02:19:57;;;;;;;;;;;;;;;;;;2131528;27;19923;-44
2022/02/16 02:20:58;;;;;;;;;;;;;;;;;;2136282;27;19923;-45
2022/02/16 02:22:00;;;;;;;;;;;;;;;;;;2140353;27;20155;-44
2022/02/16 02:23:01;;;;;;;;;;;;;;;;;;2139760;27;19962;-44
2022/02/16 02:24:01;;;;;;;;;;;;;;;;;;2136092;27;20003;-44
2022/02/16 02:25:02;;;;;;;;;;;;;;;;;;2140128;27;19930;-44
2022/02/16 02:26:03;;;;;;;;;;;;;;;;;;2140494;27;19965;-45
2022/02/16 02:27:04;;;;;;;;;;;;;;;;;;2132632;27;20011;-44
2022/02/16 02:28:05;;;;;;;;;;;;;;;;;;2132990;27;20048;-44
2022/02/16 02:29:06;;;;;;;;;;;;;;;;;;2137204;27;20416;-44
2022/02/16 02:30:07;;;;;;;;;;;;;;;;;;2132872;27;19927;-44
2022/02/16 02:31:08;;;;;;;;;;;;;;;;;;2133016;27;19972;-44
2022/02/16 02:32:08;;;;;;;;;;;;;;;;;;2136336;27;19938;-45
2022/02/16 02:33:09;;;;;;;;;;;;;;;;;;2140964;27;19962;-45
2022/02/16 02:34:10;;;;;;;;;;;;;;;;;;2133316;27;19923;-44
2022/02/16 02:35:11;;;;;;;;;;;;;;;;;;2138014;27;19930;-44
2022/02/16 02:36:12;;;;;;;;;;;;;;;;;;2141603;27;20017;-44
2022/02/16 02:37:13;;;;;;;;;;;;;;;;;;2141141;27;20009;-44
2022/02/16 02:38:14;;;;;;;;;;;;;;;;;;2137991;27;19930;-44
2022/02/16 02:39:14;;;;;;;;;;;;;;;;;;2141629;27;20042;-44
2022/02/16 02:40:15;;;;;;;;;;;;;;;;;;2140504;27;19970;-44
2022/02/16 02:41:16;;;;;;;;;;;;;;;;;;2139743;27;20399;-44
2022/02/16 02:42:17;;;;;;;;;;;;;;;;;;2141765;27;19923;-44
2022/02/16 02:43:20;;;;;;;;;;;;;;;;;;2137170;27;20264;-50
2022/02/16 02:44:21;;;;;;;;;;;;;;;;;;2141429;27;19954;-45
2022/02/16 02:45:21;;;;;;;;;;;;;;;;;;2141607;27;19958;-44
2022/02/16 02:46:22;;;;;;;;;;;;;;;;;;2137201;27;20375;-44
2022/02/16 02:47:23;;;;;;;;;;;;;;;;;;2133030;27;19930;-45
2022/02/16 02:48:24;;;;;;;;;;;;;;;;;;2132658;27;19927;-44
2022/02/16 02:49:25;;;;;;;;;;;;;;;;;;2138839;27;20622;-44
2022/02/16 02:50:26;;;;;;;;;;;;;;;;;;2141478;27;20041;-44
2022/02/16 02:51:27;;;;;;;;;;;;;;;;;;2140112;27;19943;-44
2022/02/16 02:52:27;;;;;;;;;;;;;;;;;;2138454;27;19923;-44
2022/02/16 02:53:28;;;;;;;;;;;;;;;;;;2141719;27;20383;-44
2022/02/16 02:54:29;;;;;;;;;;;;;;;;;;2139792;27;20121;-45
2022/02/16 02:55:30;;;;;;;;;;;;;;;;;;2140525;27;19927;-44
2022/02/16 02:56:31;;;;;;;;;;;;;;;;;;2141435;27;19930;-44
2022/02/16 02:57:32;;;;;;;;;;;;;;;;;;2138898;27;20407;-44
2022/02/16 02:58:33;;;;;;;;;;;;;;;;;;2141161;27;19923;-44
2022/02/16 02:59:34;;;;;;;;;;;;;;;;;;2141527;27;20041;-44
2022/02/16 03:00:35;;;;;;;;;;;;;;;;;;2138025;27;19927;-44
2022/02/16 03:01:35;;;;;;;;;;;;;;;;;;2132665;27;19923;-44
2022/02/16 03:02:36;;;;;;;;;;;;;;;;;;2133312;27;20268;-44
2022/02/16 03:03:37;;;;;;;;;;;;;;;;;;2138076;27;19930;-44
2022/02/16 03:04:38;;;;;;;;;;;;;;;;;;2141561;27;19923;-44
2022/02/16 03:05:38;;;;;;;;;;;;;;;;;;2141489;27;19923;-51
2022/02/16 03:06:40;;;;;;;;;;;;;;;;;;2138637;27;19926;-50
2022/02/16 03:07:40;;;;;;;;;;;;;;;;;;2141374;27;20407;-52
2022/02/16 03:08:43;;;;;;;;;;;;;;;;;;2137022;27;19923;-50
2022/02/16 03:09:44;;;;;;;;;;;;;;;;;;2140014;27;19931;-50
2022/02/16 03:10:45;;;;;;;;;;;;;;;;;;2141238;27;19934;-50
2022/02/16 03:11:46;;;;;;;;;;;;;;;;;;2138497;27;20013;-45
2022/02/16 03:12:47;;;;;;;;;;;;;;;;;;2141359;27;19981;-44
2022/02/16 03:13:47;;;;;;;;;;;;;;;;;;2141384;27;19941;-44
2022/02/16 03:14:48;;;;;;;;;;;;;;;;;;2138196;27;19923;-45
2022/02/16 03:15:49;;;;;;;;;;;;;;;;;;2141370;27;19923;-44
2022/02/16 03:16:50;;;;;;;;;;;;;;;;;;2141739;27;19971;-44
2022/02/16 03:17:51;;;;;;;;;;;;;;;;;;2137712;27;19923;-44
2022/02/16 03:18:52;;;;;;;;;;;;;;;;;;2141599;27;20375;-45
2022/02/16 03:19:53;;;;;;;;;;;;;;;;;;2140531;27;19923;-44
2022/02/16 03:20:54;;;;;;;;;;;;;;;;;;2138973;27;19971;-45
2022/02/16 03:21:54;;;;;;;;;;;;;;;;;;2141382;27;19968;-45
2022/02/16 03:22:55;;;;;;;;;;;;;;;;;;2139645;27;20017;-44
2022/02/16 03:23:56;;;;;;;;;;;;;;;;;;2140091;27;19923;-50
2022/02/16 03:24:58;;;;;;;;;;;;;;;;;;2141387;27;19940;-50
2022/02/16 03:25:59;;;;;;;;;;;;;;;;;;2137960;27;20002;-50
2022/02/16 03:27:00;;;;;;;;;;;;;;;;;;2141295;27;20363;-49
2022/02/16 03:28:00;;;;;;;;;;;;;;;;;;2141439;27;19937;-50
2022/02/16 03:29:01;;;;;;;;;;;;;;;;;;2138236;27;19923;-44
2022/02/16 03:30:02;;;;;;;;;;;;;;;;;;2134946;27;20023;-44
2022/02/16 03:31:03;;;;;;;;;;;;;;;;;;2131880;27;19923;-45
2022/02/16 03:32:05;;;;;;;;;;;;;;;;;;2136484;27;19966;-44
2022/02/16 03:33:05;;;;;;;;;;;;;;;;;;2141373;27;20373;-43
2022/02/16 03:34:06;;;;;;;;;;;;;;;;;;2138365;27;19923;-44
2022/02/16 03:35:07;;;;;;;;;;;;;;;;;;2139492;27;20005;-45
2022/02/16 03:36:12;;;;;;;;;;;;;;;;;;2141284;27;19972;-45
2022/02/16 03:37:13;;;;;;;;;;;;;;;;;;2138537;27;19923;-44
2022/02/16 03:38:14;;;;;;;;;;;;;;;;;;2140368;27;19962;-44
2022/02/16 03:39:15;;;;;;;;;;;;;;;;;;2141387;27;19926;-44
2022/02/16 03:40:16;;;;;;;;;;;;;;;;;;2138028;27;19923;-43
2022/02/16 03:41:17;;;;;;;;;;;;;;;;;;2141088;27;19923;-44
2022/02/16 03:42:19;;;;;;;;;;;;;;;;;;2149461;22;20386;-50
2022/02/16 03:43:19;;;;;;;;;;;;;;;;;;2096233;28;20453;-50
2022/02/16 03:44:21;;;;;;;;;;;;;;;;;;2098710;28;19924;-50
2022/02/16 03:45:21;;;;;;;;;;;;;;;;;;2096549;28;19924;-50
2022/02/16 03:46:23;;;;;;;;;;;;;;;;;;2097420;28;19931;-50
2022/02/16 03:47:23;;;;;;;;;;;;;;;;;;2099014;28;20015;-45
2022/02/16 03:48:24;;;;;;;;;;;;;;;;;;2096470;28;19924;-44
2022/02/16 03:49:25;;;;;;;;;;;;;;;;;;2090487;28;19960;-44
2022/02/16 03:50:26;;;;;;;;;;;;;;;;;;2090396;28;19925;-44
2022/02/16 03:51:27;;;;;;;;;;;;;;;;;;2094340;28;20280;-50
2022/02/16 03:52:28;;;;;;;;;;;;;;;;;;2098552;28;19924;-50
2022/02/16 03:53:29;;;;;;;;;;;;;;;;;;2098651;28;20266;-50
2022/02/16 03:54:31;;;;;;;;;;;;;;;;;;2096316;28;19929;-51
2022/02/16 03:55:31;;;;;;;;;;;;;;;;;;2098734;28;20027;-50
2022/02/16 03:56:33;;;;;;;;;;;;;;;;;;2097077;28;19956;-44
2022/02/16 03:57:33;;;;;;;;;;;;;;;;;;2096185;28;20027;-44
2022/02/16 03:58:34;;;;;;;;;;;;;;;;;;2098652;28;19932;-44
2022/02/16 03:59:35;;;;;;;;;;;;;;;;;;2097867;28;20253;-45
2022/02/16 04:00:36;;;;;;;;;;;;;;;;;;2097154;28;19928;-44
2022/02/16 04:01:37;;;;;;;;;;;;;;;;;;2098388;28;19925;-44
2022/02/16 04:02:38;;;;;;;;;;;;;;;;;;2095288;28;19924;-44
2022/02/16 04:03:39;;;;;;;;;;;;;;;;;;2098486;28;20006;-44
2022/02/16 04:04:40;;;;;;;;;;;;;;;;;;2098100;28;19925;-45
2022/02/16 04:05:42;;;;;;;;;;;;;;;;;;2096604;28;19925;-45
2022/02/16 04:06:43;;;;;;;;;;;;;;;;;;2098732;28;20011;-44
2022/02/16 04:07:44;;;;;;;;;;;;;;;;;;2096485;28;19924;-44
2022/02/16 04:08:45;;;;;;;;;;;;;;;;;;2096022;28;20015;-44
2022/02/16 04:09:46;;;;;;;;;;;;;;;;;;2098477;28;20448;-44
2022/02/16 04:10:47;;;;;;;;;;;;;;;;;;2096732;28;19927;-51
2022/02/16 04:11:48;;;;;;;;;;;;;;;;;;2098556;28;20406;-50
2022/02/16 04:12:48;;;;;;;;;;;;;;;;;;2098654;28;19924;-50
2022/02/16 04:13:49;;;;;;;;;;;;;;;;;;2096367;28;19925;-52
2022/02/16 04:14:50;;;;;;;;;;;;;;;;;;2098699;28;19928;-49
2022/02/16 04:15:51;;;;;;;;;;;;;;;;;;2098794;28;19924;-52
2022/02/16 04:16:52;;;;;;;;;;;;;;;;;;2093954;28;19979;-50
2022/02/16 04:17:53;;;;;;;;;;;;;;;;;;2098523;28;19924;-50
2022/02/16 04:18:53;;;;;;;;;;;;;;;;;;2098024;28;19932;-50
2022/02/16 04:19:55;;;;;;;;;;;;;;;;;;2096729;28;20320;-51
2022/02/16 04:20:56;;;;;;;;;;;;;;;;;;2098432;28;19987;-52
2022/02/16 04:21:57;;;;;;;;;;;;;;;;;;2097710;28;20031;-51
2022/02/16 04:22:58;;;;;;;;;;;;;;;;;;2097464;28;20408;-44
2022/02/16 04:23:58;;;;;;;;;;;;;;;;;;2098406;28;19932;-44
2022/02/16 04:24:59;;;;;;;;;;;;;;;;;;2096462;28;20298;-45
2022/02/16 04:26:01;;;;;;;;;;;;;;;;;;2098028;28;19925;-45
2022/02/16 04:27:03;;;;;;;;;;;;;;;;;;2098532;28;20409;-44
2022/02/16 04:28:04;;;;;;;;;;;;;;;;;;2096086;28;20353;-44
2022/02/16 04:29:05;;;;;;;;;;;;;;;;;;2098388;28;20019;-45
2022/02/16 04:30:06;;;;;;;;;;;;;;;;;;2098464;28;19924;-44
2022/02/16 04:31:08;;;;;;;;;;;;;;;;;;2094100;28;19928;-44
2022/02/16 04:32:09;;;;;;;;;;;;;;;;;;2098475;28;19954;-44
2022/02/16 04:33:10;;;;;;;;;;;;;;;;;;2097748;28;19931;-45
2022/02/16 04:34:11;;;;;;;;;;;;;;;;;;2097047;28;19925;-45
2022/02/16 04:35:12;;;;;;;;;;;;;;;;;;2098312;28;20267;-45
2022/02/16 04:36:25;;;;;;;;;;;;;;;;;;2095214;28;19925;-45
2022/02/16 04:37:27;;;;;;;;;;;;;;;;;;2097821;28;20270;-44
2022/02/16 04:38:28;;;;;;;;;;;;;;;;;;2098499;28;19978;-45
2022/02/16 04:39:29;;;;;;;;;;;;;;;;;;2096132;28;20393;-44
2022/02/16 04:40:29;;;;;;;;;;;;;;;;;;2098517;28;19936;-45
2022/02/16 04:41:30;;;;;;;;;;;;;;;;;;2097857;28;19924;-44
2022/02/16 04:42:31;;;;;;;;;;;;;;;;;;2095396;28;19947;-45
2022/02/16 04:43:32;;;;;;;;;;;;;;;;;;2098407;28;19928;-44
2022/02/16 04:44:33;;;;;;;;;;;;;;;;;;2097552;28;19924;-44
2022/02/16 04:45:34;;;;;;;;;;;;;;;;;;2096818;28;19928;-44
2022/02/16 04:46:35;;;;;;;;;;;;;;;;;;2098217;28;19931;-44
2022/02/16 04:47:36;;;;;;;;;;;;;;;;;;2096543;28;19925;-45
2022/02/16 04:48:38;;;;;;;;;;;;;;;;;;2097975;28;19931;-44
2022/02/16 04:49:39;;;;;;;;;;;;;;;;;;2097615;28;20381;-44
2022/02/16 04:50:40;;;;;;;;;;;;;;;;;;2095733;28;20019;-50
2022/02/16 04:51:41;;;;;;;;;;;;;;;;;;2098217;28;19924;-53
2022/02/16 04:52:42;;;;;;;;;;;;;;;;;;2098249;28;19968;-51
2022/02/16 04:53:43;;;;;;;;;;;;;;;;;;2096324;28;20019;-44
2022/02/16 04:54:44;;;;;;;;;;;;;;;;;;2098256;28;19929;-44
2022/02/16 04:55:44;;;;;;;;;;;;;;;;;;2096954;28;19924;-45
2022/02/16 04:56:45;;;;;;;;;;;;;;;;;;2096226;28;20327;-44
2022/02/16 04:57:46;;;;;;;;;;;;;;;;;;2098530;28;19931;-51
2022/02/16 04:58:47;;;;;;;;;;;;;;;;;;2097424;28;20320;-51
2022/02/16 04:59:48;;;;;;;;;;;;;;;;;;2096785;28;20027;-51
2022/02/16 05:00:49;;;;;;;;;;;;;;;;;;2098216;28;19925;-44
2022/02/16 05:01:50;;;;;;;;;;;;;;;;;;2096231;28;20167;-44
2022/02/16 05:02:51;;;;;;;;;;;;;;;;;;2098121;28;19925;-50
2022/02/16 05:03:51;;;;;;;;;;;;;;;;;;2098203;28;19931;-49
2022/02/16 05:04:52;;;;;;;;;;;;;;;;;;2096001;28;20409;-52
2022/02/16 05:05:53;;;;;;;;;;;;;;;;;;2098045;28;20461;-50
2022/02/16 05:06:54;;;;;;;;;;;;;;;;;;2098418;28;19932;-51
2022/02/16 05:07:55;;;;;;;;;;;;;;;;;;2095990;28;19971;-51
2022/02/16 05:08:57;;;;;;;;;;;;;;;;;;2098122;28;19928;-53
2022/02/16 05:09:58;;;;;;;;;;;;;;;;;;2097774;28;20066;-44
2022/02/16 05:11:01;;;;;;;;;;;;;;;;;;2096549;28;19932;-51
2022/02/16 05:12:02;;;;;;;;;;;;;;;;;;2098151;28;20011;-50
2022/02/16 05:13:03;;;;;;;;;;;;;;;;;;2094859;28;20389;-52
2022/02/16 05:14:04;;;;;;;;;;;;;;;;;;2096967;28;20357;-54
2022/02/16 05:15:05;;;;;;;;;;;;;;;;;;2098241;28;20025;-53
2022/02/16 05:16:06;;;;;;;;;;;;;;;;;;2093496;28;19932;-50
2022/02/16 05:17:07;;;;;;;;;;;;;;;;;;2089909;28;19925;-51
2022/02/16 05:18:11;;;;;;;;;;;;;;;;;;2089585;28;20082;-53
2022/02/16 05:19:13;;;;;;;;;;;;;;;;;;2095710;28;20139;-45
2022/02/16 05:20:14;;;;;;;;;;;;;;;;;;2097996;28;19929;-46
2022/02/16 05:21:15;;;;;;;;;;;;;;;;;;2095190;28;20271;-45
2022/02/16 05:22:16;;;;;;;;;;;;;;;;;;2096231;28;19989;-44
2022/02/16 05:23:17;;;;;;;;;;;;;;;;;;2098251;28;20569;-45
2022/02/16 05:24:19;;;;;;;;;;;;;;;;;;2094572;28;19924;-44
2022/02/16 05:25:20;;;;;;;;;;;;;;;;;;2098560;28;20023;-45
2022/02/16 05:26:21;;;;;;;;;;;;;;;;;;2098183;28;19932;-45
2022/02/16 05:27:22;;;;;;;;;;;;;;;;;;2095834;28;19925;-44
2022/02/16 05:28:23;;;;;;;;;;;;;;;;;;2097993;28;19925;-45
2022/02/16 05:29:24;;;;;;;;;;;;;;;;;;2097313;28;20405;-44
2022/02/16 05:30:25;;;;;;;;;;;;;;;;;;2095271;28;19968;-44
2022/02/16 05:31:25;;;;;;;;;;;;;;;;;;2097898;28;19928;-45
2022/02/16 05:32:26;;;;;;;;;;;;;;;;;;2095557;28;19997;-45
2022/02/16 05:33:27;;;;;;;;;;;;;;;;;;2096146;28;20327;-45
2022/02/16 05:34:30;;;;;;;;;;;;;;;;;;2097963;28;20067;-45
2022/02/16 05:35:31;;;;;;;;;;;;;;;;;;2095652;28;19925;-45
2022/02/16 05:36:32;;;;;;;;;;;;;;;;;;2089953;28;19924;-44
2022/02/16 05:37:33;;;;;;;;;;;;;;;;;;2089837;28;19950;-45
2022/02/16 05:38:35;;;;;;;;;;;;;;;;;;2092227;28;20334;-46
2022/02/16 05:39:36;;;;;;;;;;;;;;;;;;2097983;28;19940;-45
2022/02/16 05:40:37;;;;;;;;;;;;;;;;;;2097905;28;19924;-45
2022/02/16 05:41:38;;;;;;;;;;;;;;;;;;2095973;28;19925;-45
2022/02/16 05:42:39;;;;;;;;;;;;;;;;;;2097881;28;20004;-46
2022/02/16 05:43:40;;;;;;;;;;;;;;;;;;2097450;28;19947;-44
2022/02/16 05:44:40;;;;;;;;;;;;;;;;;;2096103;28;19924;-45
2022/02/16 05:45:41;;;;;;;;;;;;;;;;;;2098403;28;19931;-44
2022/02/16 05:46:42;;;;;;;;;;;;;;;;;;2097239;28;20336;-44
2022/02/16 05:47:43;;;;;;;;;;;;;;;;;;2096659;28;19932;-44
2022/02/16 05:48:44;;;;;;;;;;;;;;;;;;2097935;28;20483;-44
2022/02/16 05:49:45;;;;;;;;;;;;;;;;;;2094815;28;20266;-44
2022/02/16 05:50:46;;;;;;;;;;;;;;;;;;2096560;28;20393;-45
2022/02/16 05:51:47;;;;;;;;;;;;;;;;;;2097967;28;19928;-45
2022/02/16 05:52:47;;;;;;;;;;;;;;;;;;2094261;28;19933;-45
2022/02/16 05:53:49;;;;;;;;;;;;;;;;;;2097231;28;19940;-44
2022/02/16 05:54:49;;;;;;;;;;;;;;;;;;2097301;28;19971;-44
2022/02/16 05:55:50;;;;;;;;;;;;;;;;;;2094971;28;19932;-45
2022/02/16 05:56:51;;;;;;;;;;;;;;;;;;2097382;28;19924;-45
2022/02/16 05:57:52;;;;;;;;;;;;;;;;;;2095723;28;19936;-44
2022/02/16 05:58:53;;;;;;;;;;;;;;;;;;2096307;28;20377;-44
2022/02/16 05:59:54;;;;;;;;;;;;;;;;;;2097901;28;19954;-44
2022/02/16 06:00:54;;;;;;;;;;;;;;;;;;2095909;28;19924;-44
2022/02/16 06:01:56;;;;;;;;;;;;;;;;;;2096143;28;19959;-45
2022/02/16 06:02:56;;;;;;;;;;;;;;;;;;2097863;28;19967;-45
2022/02/16 06:03:57;;;;;;;;;;;;;;;;;;2095668;28;20289;-45
2022/02/16 06:04:58;;;;;;;;;;;;;;;;;;2097628;28;19931;-45
2022/02/16 06:05:59;;;;;;;;;;;;;;;;;;2097935;28;19939;-44
2022/02/16 06:07:00;;;;;;;;;;;;;;;;;;2094292;28;19947;-44
2022/02/16 06:08:01;;;;;;;;;;;;;;;;;;2098121;28;19935;-50
2022/02/16 06:09:02;;;;;;;;;;;;;;;;;;2097732;28;19932;-49
2022/02/16 06:10:02;;;;;;;;;;;;;;;;;;2094820;28;20007;-50
2022/02/16 06:11:04;;;;;;;;;;;;;;;;;;2097641;28;19971;-49
2022/02/16 06:12:05;;;;;;;;;;;;;;;;;;2097000;28;19971;-49
2022/02/16 06:13:06;;;;;;;;;;;;;;;;;;2096249;28;19924;-51
2022/02/16 06:14:07;;;;;;;;;;;;;;;;;;2097755;28;20407;-49
2022/02/16 06:15:09;;;;;;;;;;;;;;;;;;2095980;28;19960;-50
2022/02/16 06:16:10;;;;;;;;;;;;;;;;;;2097689;28;19925;-49
2022/02/16 06:17:10;;;;;;;;;;;;;;;;;;2098003;28;20435;-45
2022/02/16 06:18:11;;;;;;;;;;;;;;;;;;2094033;28;19924;-46
2022/02/16 06:19:12;;;;;;;;;;;;;;;;;;2097757;28;19924;-44
2022/02/16 06:20:13;;;;;;;;;;;;;;;;;;2097826;28;19931;-46
2022/02/16 06:21:14;;;;;;;;;;;;;;;;;;2095368;28;19928;-44
2022/02/16 06:22:17;;;;;;;;;;;;;;;;;;2097790;28;19924;-45
2022/02/16 06:23:18;;;;;;;;;;;;;;;;;;2097468;28;19959;-44
2022/02/16 06:24:19;;;;;;;;;;;;;;;;;;2092647;28;20291;-46
2022/02/16 06:25:21;;;;;;;;;;;;;;;;;;2089400;28;20416;-44
2022/02/16 06:26:22;;;;;;;;;;;;;;;;;;2091181;28;20031;-45
2022/02/16 06:27:23;;;;;;;;;;;;;;;;;;2096775;28;20305;-45
2022/02/16 06:28:24;;;;;;;;;;;;;;;;;;2097783;28;20013;-45
2022/02/16 06:29:25;;;;;;;;;;;;;;;;;;2096939;28;19924;-50
2022/02/16 06:30:25;;;;;;;;;;;;;;;;;;2089590;28;19975;-49
2022/02/16 06:31:27;;;;;;;;;;;;;;;;;;2089378;28;20289;-51
2022/02/16 06:32:27;;;;;;;;;;;;;;;;;;2093682;28;20023;-49
2022/02/16 06:33:28;;;;;;;;;;;;;;;;;;2097680;28;19925;-48
2022/02/16 06:34:29;;;;;;;;;;;;;;;;;;2097637;28;20449;-50
2022/02/16 06:35:30;;;;;;;;;;;;;;;;;;2095690;28;20007;-49
2022/02/16 06:36:31;;;;;;;;;;;;;;;;;;2097541;28;20453;-50
2022/02/16 06:37:32;;;;;;;;;;;;;;;;;;2096843;28;19931;-50
2022/02/16 06:38:33;;;;;;;;;;;;;;;;;;2096222;28;20472;-50
2022/02/16 06:39:34;;;;;;;;;;;;;;;;;;2097638;28;19976;-49
2022/02/16 06:40:35;;;;;;;;;;;;;;;;;;2094792;28;20354;-49
2022/02/16 06:41:36;;;;;;;;;;;;;;;;;;2095869;28;19925;-49
2022/02/16 06:42:37;;;;;;;;;;;;;;;;;;2097874;28;19924;-49
2022/02/16 06:43:37;;;;;;;;;;;;;;;;;;2095458;28;19974;-49
2022/02/16 06:44:39;;;;;;;;;;;;;;;;;;2097791;28;19928;-48
2022/02/16 06:45:40;;;;;;;;;;;;;;;;;;2097507;28;20392;-48
2022/02/16 06:46:41;;;;;;;;;;;;;;;;;;2096086;28;20008;-44
2022/02/16 06:47:46;;;;;;;;;;;;;;;;;;2097560;28;20270;-44
2022/02/16 06:48:48;;;;;;;;;;;;;;;;;;2096427;28;19924;-49
2022/02/16 06:49:50;;;;;;;;;;;;;;;;;;2094386;28;19924;-49
2022/02/16 06:50:50;;;;;;;;;;;;;;;;;;2097690;28;19924;-49
2022/02/16 06:51:53;;;;;;;;;;;;;;;;;;2094218;28;20861;-51
2022/02/16 06:52:57;;;;;;;;;;;;;;;;;;2096474;28;20007;-49
2022/02/16 06:53:58;;;;;;;;;;;;;;;;;;2097634;28;19940;-48
2022/02/16 06:54:59;;;;;;;;;;;;;;;;;;2095607;28;19932;-43
2022/02/16 06:56:00;;;;;;;;;;;;;;;;;;2097342;28;20038;-44
2022/02/16 06:57:00;;;;;;;;;;;;;;;;;;2097510;28;19924;-44